Time;durP1;ratioP1;P1;durP2;ratioP2;P2;SDS_P1;SDS_P2;PMS_P1;PMS_P2;Temp;Humidity;BMP_temperature;BMP_pressure;BME280_temperature;BME280_humidity;BME280_pressure;Samples;Min_cycle;Max_cycle;Signal;HPM_P1;HPM_P2
2021/11/16 00:01:57;;;;;;;60.77;29.97;;;;;;;;;;4955400;28;20219;-72
2021/11/16 00:05:02;;;;;;;66.83;29.50;;;;;;;;;;4943439;29;20296;-73
2021/11/16 00:08:07;;;;;;;65.00;32.43;;;;;;;;;;4943791;29;20214;-72
2021/11/16 00:11:11;;;;;;;62.83;29.93;;;;;;;;;;4943655;28;20229;-72
2021/11/16 00:14:16;;;;;;;62.20;28.77;;;;;;;;;;4943568;29;20195;-73
2021/11/16 00:17:21;;;;;;;53.67;28.00;;;;;;;;;;4954777;29;20184;-72
2021/11/16 00:20:25;;;;;;;56.17;28.60;;;;;;;;;;4954978;29;20203;-73
2021/11/16 00:23:36;;;;;;;52.63;27.57;;;;;;;;;;4955218;29;20206;-73
2021/11/16 00:26:44;;;;;;;52.30;27.30;;;;;;;;;;4932337;29;20180;-72
2021/11/16 00:29:49;;;;;;;55.53;28.07;;;;;;;;;;4943097;29;20188;-73
2021/11/16 00:32:54;;;;;;;59.63;29.00;;;;;;;;;;4955061;28;20230;-72
2021/11/16 00:35:58;;;;;;;61.57;28.23;;;;;;;;;;4943262;29;20208;-73
2021/11/16 00:39:03;;;;;;;62.97;30.00;;;;;;;;;;4955152;29;20188;-73
2021/11/16 00:42:07;;;;;;;62.30;29.40;;;;;;;;;;4955014;28;20615;-72
2021/11/16 00:45:13;;;;;;;63.10;29.13;;;;;;;;;;4943230;29;20188;-73
2021/11/16 00:48:23;;;;;;;58.93;29.93;;;;;;;;;;4954705;29;20207;-73
2021/11/16 00:51:27;;;;;;;59.43;29.20;;;;;;;;;;4954942;28;20713;-72
2021/11/16 00:54:31;;;;;;;62.40;29.23;;;;;;;;;;4943179;29;20188;-72
2021/11/16 00:57:35;;;;;;;63.13;30.07;;;;;;;;;;4943109;29;20203;-72
2021/11/16 01:00:39;;;;;;;64.47;30.97;;;;;;;;;;4955367;28;20191;-73
2021/11/16 01:03:43;;;;;;;64.37;30.50;;;;;;;;;;4943021;29;20210;-73
2021/11/16 01:06:49;;;;;;;50.07;26.23;;;;;;;;;;4955122;29;20180;-72
2021/11/16 01:09:53;;;;;;;53.57;26.67;;;;;;;;;;4943321;29;20183;-73
2021/11/16 01:12:58;;;;;;;51.93;26.60;;;;;;;;;;4954049;29;20187;-73
2021/11/16 01:16:02;;;;;;;55.30;26.63;;;;;;;;;;4954814;29;20198;-72
2021/11/16 01:19:08;;;;;;;59.00;28.80;;;;;;;;;;4942752;29;20187;-73
2021/11/16 01:22:13;;;;;;;54.27;28.20;;;;;;;;;;4954421;28;20227;-72
2021/11/16 01:25:18;;;;;;;55.40;27.07;;;;;;;;;;4954833;29;20687;-72
2021/11/16 01:28:26;;;;;;;61.97;28.10;;;;;;;;;;4954293;28;20223;-72
2021/11/16 01:31:30;;;;;;;50.57;26.90;;;;;;;;;;4957991;28;20226;-73
2021/11/16 01:34:34;;;;;;;55.60;28.47;;;;;;;;;;4946505;29;20194;-73
2021/11/16 01:37:39;;;;;;;56.33;27.83;;;;;;;;;;4958242;29;20192;-72
2021/11/16 01:40:45;;;;;;;54.07;25.90;;;;;;;;;;4957560;28;20204;-73
2021/11/16 01:43:49;;;;;;;49.60;26.13;;;;;;;;;;4957846;29;20218;-73
2021/11/16 01:46:53;;;;;;;48.53;26.00;;;;;;;;;;4957778;29;20556;-72
2021/11/16 01:49:58;;;;;;;57.40;27.70;;;;;;;;;;4957747;29;20190;-72
2021/11/16 01:53:03;;;;;;;52.37;26.10;;;;;;;;;;4957769;29;20260;-72
2021/11/16 01:56:07;;;;;;;53.57;27.60;;;;;;;;;;4957506;29;20200;-73
2021/11/16 01:59:12;;;;;;;55.90;28.70;;;;;;;;;;4957641;29;20180;-72
2021/11/16 02:02:16;;;;;;;53.37;27.77;;;;;;;;;;4957551;28;20222;-73
2021/11/16 02:05:43;;;;;;;52.50;27.13;;;;;;;;;;4957366;29;20214;-72
2021/11/16 02:08:49;;;;;;;53.53;26.73;;;;;;;;;;4957101;29;20227;-73
2021/11/16 02:11:53;;;;;;;51.90;25.50;;;;;;;;;;4957021;28;20226;-72
2021/11/16 02:14:58;;;;;;;50.70;26.83;;;;;;;;;;4957343;29;20187;-72
2021/11/16 02:18:04;;;;;;;55.30;26.63;;;;;;;;;;4957266;29;20188;-73
2021/11/16 02:21:09;;;;;;;47.27;25.77;;;;;;;;;;4957384;28;20690;-73
2021/11/16 02:24:13;;;;;;;47.63;24.97;;;;;;;;;;4956936;29;20191;-73
2021/11/16 02:27:17;;;;;;;47.40;25.37;;;;;;;;;;4945316;29;20183;-73
2021/11/16 02:30:24;;;;;;;49.67;25.90;;;;;;;;;;4945027;29;20176;-73
2021/11/16 02:33:28;;;;;;;52.17;25.63;;;;;;;;;;4945209;29;20199;-72
2021/11/16 02:36:33;;;;;;;57.23;27.00;;;;;;;;;;4956666;29;20186;-72
2021/11/16 02:39:38;;;;;;;55.67;27.57;;;;;;;;;;4944871;29;20196;-73
2021/11/16 02:42:42;;;;;;;51.17;27.30;;;;;;;;;;4957787;28;20227;-72
2021/11/16 02:45:48;;;;;;;52.03;25.10;;;;;;;;;;4944982;29;20543;-72
2021/11/16 02:48:51;;;;;;;52.83;26.73;;;;;;;;;;4956630;29;20204;-73
2021/11/16 02:51:55;;;;;;;53.43;26.30;;;;;;;;;;4956564;28;20222;-73
2021/11/16 02:54:59;;;;;;;52.67;27.07;;;;;;;;;;4956527;29;20692;-73
2021/11/16 02:58:04;;;;;;;54.43;28.23;;;;;;;;;;4944674;29;20273;-73
2021/11/16 03:01:14;;;;;;;59.43;28.37;;;;;;;;;;4956606;28;20567;-72
2021/11/16 03:04:22;;;;;;;61.53;29.43;;;;;;;;;;4956149;29;20187;-72
2021/11/16 03:07:32;;;;;;;66.73;30.20;;;;;;;;;;4944566;29;20548;-73
2021/11/16 03:10:37;;;;;;;58.10;28.10;;;;;;;;;;4956068;28;20206;-73
2021/11/16 03:13:41;;;;;;;61.23;29.20;;;;;;;;;;4956243;29;20187;-73
2021/11/16 03:16:47;;;;;;;62.70;28.83;;;;;;;;;;4933495;29;20183;-72
2021/11/16 03:19:51;;;;;;;62.60;29.90;;;;;;;;;;4944155;29;20658;-72
2021/11/16 03:23:07;;;;;;;61.77;29.53;;;;;;;;;;4944359;29;20183;-73
2021/11/16 03:26:13;;;;;;;56.23;27.33;;;;;;;;;;4955707;29;20179;-73
2021/11/16 03:29:19;;;;;;;61.60;30.13;;;;;;;;;;4955853;29;20211;-73
2021/11/16 03:32:29;;;;;;;67.73;30.90;;;;;;;;;;4933200;29;20287;-73
2021/11/16 03:35:35;;;;;;;60.27;29.13;;;;;;;;;;4944224;29;20190;-73
2021/11/16 03:38:40;;;;;;;62.80;29.00;;;;;;;;;;4956071;29;20523;-73
2021/11/16 03:41:46;;;;;;;69.53;31.33;;;;;;;;;;4955419;28;20219;-73
2021/11/16 03:44:50;;;;;;;71.03;30.30;;;;;;;;;;4955939;29;20206;-73
2021/11/16 03:47:57;;;;;;;65.20;28.83;;;;;;;;;;4955629;29;20206;-73
2021/11/16 03:51:01;;;;;;;68.03;32.87;;;;;;;;;;4943558;28;20218;-72
2021/11/16 03:54:05;;;;;;;67.30;30.97;;;;;;;;;;4955237;29;20212;-72
2021/11/16 03:57:09;;;;;;;67.37;30.13;;;;;;;;;;4955509;29;20207;-73
2021/11/16 04:00:18;;;;;;;67.00;29.47;;;;;;;;;;4942954;29;20187;-72
2021/11/16 04:03:24;;;;;;;68.20;28.73;;;;;;;;;;4953880;29;20194;-73
2021/11/16 04:06:29;;;;;;;64.73;31.07;;;;;;;;;;4982320;23;20600;-72
2021/11/16 04:09:33;;;;;;;63.00;28.73;;;;;;;;;;4974547;28;20218;-72
2021/11/16 04:12:43;;;;;;;68.33;30.13;;;;;;;;;;4957291;28;20223;-72
2021/11/16 04:15:49;;;;;;;66.07;32.00;;;;;;;;;;4954430;29;20199;-72
2021/11/16 04:18:54;;;;;;;67.00;28.27;;;;;;;;;;4930472;29;20550;-72
2021/11/16 04:21:57;;;;;;;64.20;29.07;;;;;;;;;;4954656;29;20232;-72
2021/11/16 04:25:04;;;;;;;65.13;30.00;;;;;;;;;;4955216;29;20187;-72
2021/11/16 04:28:09;;;;;;;57.53;26.37;;;;;;;;;;4954729;29;20203;-72
2021/11/16 04:31:14;;;;;;;62.90;27.97;;;;;;;;;;4955268;29;20587;-72
2021/11/16 04:34:18;;;;;;;66.37;27.67;;;;;;;;;;4952578;29;20199;-72
2021/11/16 04:37:22;;;;;;;72.20;29.53;;;;;;;;;;4936018;29;20196;-72
2021/11/16 04:40:33;;;;;;;69.57;28.60;;;;;;;;;;4935082;29;20203;-72
2021/11/16 04:43:38;;;;;;;63.67;29.03;;;;;;;;;;4935333;29;20195;-72
2021/11/16 04:46:42;;;;;;;69.07;29.17;;;;;;;;;;4935905;29;20192;-72
2021/11/16 04:49:50;;;;;;;64.80;28.50;;;;;;;;;;4935938;29;20224;-72
2021/11/16 04:59:35;;;;;;;65.37;29.20;;;;;;;;;;4935855;29;20196;-72
2021/11/16 05:02:40;;;;;;;78.40;30.93;;;;;;;;;;4935705;29;20231;-72
2021/11/16 05:05:45;;;;;;;74.10;28.70;;;;;;;;;;4939253;29;20207;-72
2021/11/16 05:08:51;;;;;;;72.87;28.73;;;;;;;;;;4939005;29;20212;-72
2021/11/16 05:11:57;;;;;;;76.37;29.43;;;;;;;;;;4938955;29;20582;-71
2021/11/16 05:15:08;;;;;;;71.57;29.20;;;;;;;;;;4939520;29;20272;-72
2021/11/16 05:18:12;;;;;;;65.63;28.70;;;;;;;;;;4938702;29;20183;-71
2021/11/16 05:21:16;;;;;;;71.90;29.20;;;;;;;;;;4938233;29;20222;-72
2021/11/16 05:24:24;;;;;;;67.90;29.77;;;;;;;;;;4938834;29;20547;-71
2021/11/16 05:27:28;;;;;;;70.10;29.40;;;;;;;;;;4927308;29;20188;-72
2021/11/16 05:30:35;;;;;;;67.77;27.77;;;;;;;;;;4938768;29;20711;-72
2021/11/16 05:33:39;;;;;;;65.07;28.30;;;;;;;;;;4937924;29;20203;-72
2021/11/16 05:36:43;;;;;;;72.20;29.20;;;;;;;;;;4939138;29;20189;-71
2021/11/16 05:39:47;;;;;;;69.80;29.80;;;;;;;;;;4938814;29;20189;-71
2021/11/16 05:42:52;;;;;;;67.13;27.53;;;;;;;;;;4937755;29;20575;-72
2021/11/16 05:45:57;;;;;;;64.83;26.67;;;;;;;;;;4938709;29;20191;-72
2021/11/16 05:49:01;;;;;;;74.60;28.20;;;;;;;;;;4938493;29;20218;-72
2021/11/16 05:52:06;;;;;;;68.57;28.10;;;;;;;;;;4937527;29;20590;-72
2021/11/16 05:55:11;;;;;;;66.67;28.67;;;;;;;;;;4937452;29;20208;-72
2021/11/16 05:58:20;;;;;;;64.57;27.57;;;;;;;;;;4938748;29;20678;-72
2021/11/16 06:01:27;;;;;;;66.43;28.53;;;;;;;;;;4937796;29;20793;-72
2021/11/16 06:04:31;;;;;;;69.57;29.00;;;;;;;;;;4938587;29;20205;-72
2021/11/16 06:07:35;;;;;;;61.93;27.07;;;;;;;;;;4937243;29;20686;-72
2021/11/16 06:10:39;;;;;;;68.40;27.33;;;;;;;;;;4936934;29;20220;-72
2021/11/16 06:13:44;;;;;;;59.53;26.60;;;;;;;;;;4937492;29;20199;-72
2021/11/16 06:16:49;;;;;;;60.00;25.90;;;;;;;;;;4937358;29;20547;-72
2021/11/16 06:19:54;;;;;;;61.27;25.33;;;;;;;;;;4937985;29;20188;-72
2021/11/16 06:22:59;;;;;;;63.63;26.20;;;;;;;;;;4937596;29;20176;-72
2021/11/16 06:26:03;;;;;;;55.50;24.47;;;;;;;;;;4938121;29;20684;-72
2021/11/16 06:29:08;;;;;;;53.30;24.77;;;;;;;;;;4937960;29;20176;-72
2021/11/16 06:32:12;;;;;;;53.40;23.73;;;;;;;;;;4937916;29;20223;-72
2021/11/16 06:35:18;;;;;;;54.33;23.67;;;;;;;;;;4937476;29;20559;-72
2021/11/16 06:38:22;;;;;;;51.97;23.37;;;;;;;;;;4936520;29;20567;-72
2021/11/16 06:41:27;;;;;;;63.17;25.23;;;;;;;;;;4937127;29;20216;-72
2021/11/16 06:44:31;;;;;;;54.27;22.87;;;;;;;;;;4938146;29;20536;-72
2021/11/16 06:47:36;;;;;;;56.97;24.53;;;;;;;;;;4937458;29;20199;-72
2021/11/16 06:50:40;;;;;;;49.70;21.80;;;;;;;;;;4937662;29;20224;-72
2021/11/16 06:53:44;;;;;;;55.43;23.33;;;;;;;;;;4936454;29;20197;-72
2021/11/16 06:56:49;;;;;;;49.27;22.30;;;;;;;;;;4936213;29;20204;-72
2021/11/16 06:59:53;;;;;;;58.20;23.97;;;;;;;;;;4937365;29;20295;-72
2021/11/16 07:02:59;;;;;;;52.07;21.77;;;;;;;;;;4925479;29;20194;-72
2021/11/16 07:06:04;;;;;;;47.90;22.07;;;;;;;;;;4937017;29;20226;-72
2021/11/16 07:09:13;;;;;;;55.47;22.67;;;;;;;;;;4936194;29;20201;-72
2021/11/16 07:12:24;;;;;;;53.20;21.83;;;;;;;;;;4937088;29;20228;-72
2021/11/16 07:15:32;;;;;;;57.40;22.43;;;;;;;;;;4935929;29;20199;-72
2021/11/16 07:18:56;;;;;;;51.23;23.63;;;;;;;;;;4937275;29;20195;-72
2021/11/16 07:22:05;;;;;;;57.57;24.43;;;;;;;;;;4936729;29;20216;-72
2021/11/16 07:25:12;;;;;;;56.30;25.17;;;;;;;;;;4936319;29;20185;-72
2021/11/16 07:28:16;;;;;;;52.33;24.10;;;;;;;;;;4937042;29;20181;-72
2021/11/16 07:31:22;;;;;;;49.27;23.23;;;;;;;;;;4937007;29;20596;-72
2021/11/16 07:34:28;;;;;;;52.50;24.43;;;;;;;;;;4935767;29;20207;-72
2021/11/16 07:37:36;;;;;;;51.57;23.23;;;;;;;;;;4935936;29;20193;-72
2021/11/16 07:40:43;;;;;;;46.47;21.13;;;;;;;;;;4936569;29;20191;-72
2021/11/16 07:43:48;;;;;;;39.67;19.13;;;;;;;;;;4936616;29;20668;-72
2021/11/16 07:46:56;;;;;;;36.73;17.00;;;;;;;;;;4936258;29;20571;-72
2021/11/16 07:50:00;;;;;;;33.73;17.33;;;;;;;;;;4924659;29;20572;-72
2021/11/16 07:53:41;;;;;;;34.67;18.43;;;;;;;;;;4935659;29;20192;-72
2021/11/16 07:56:45;;;;;;;34.53;16.67;;;;;;;;;;4935374;29;20188;-72
2021/11/16 07:59:55;;;;;;;30.20;14.97;;;;;;;;;;4936095;29;20203;-72
2021/11/16 08:03:05;;;;;;;28.33;13.80;;;;;;;;;;4936568;29;20184;-72
2021/11/16 08:06:55;;;;;;;31.17;15.57;;;;;;;;;;4936015;29;20211;-72
2021/11/16 08:12:43;;;;;;;29.13;15.00;;;;;;;;;;4935981;29;20237;-72
2021/11/16 08:15:46;;;;;;;30.57;14.67;;;;;;;;;;4935537;29;20534;-72
2021/11/16 08:19:08;;;;;;;28.00;15.07;;;;;;;;;;4935084;29;20668;-72
2021/11/16 08:22:15;;;;;;;32.53;15.03;;;;;;;;;;4936324;29;20216;-72
2021/11/16 08:25:22;;;;;;;30.90;15.10;;;;;;;;;;4936287;29;20187;-72
2021/11/16 08:28:26;;;;;;;32.03;14.90;;;;;;;;;;4924632;29;20192;-72
2021/11/16 08:31:38;;;;;;;27.77;13.80;;;;;;;;;;4935932;29;20239;-72
2021/11/16 08:34:46;;;;;;;28.27;15.13;;;;;;;;;;4935890;29;20200;-72
2021/11/16 08:37:56;;;;;;;32.53;15.63;;;;;;;;;;4935017;29;20204;-72
2021/11/16 08:41:00;;;;;;;31.57;16.57;;;;;;;;;;4939689;29;20239;-72
2021/11/16 08:44:19;;;;;;;32.00;15.80;;;;;;;;;;4940124;29;20191;-72
2021/11/16 08:47:36;;;;;;;32.10;16.67;;;;;;;;;;4938892;29;20187;-72
2021/11/16 08:50:43;;;;;;;55.83;26.83;;;;;;;;;;4938735;29;20221;-72
2021/11/16 08:53:47;;;;;;;45.13;22.40;;;;;;;;;;4939355;29;20547;-72
2021/11/16 08:56:51;;;;;;;30.83;15.20;;;;;;;;;;4939358;29;20180;-72
2021/11/16 08:59:56;;;;;;;39.77;22.03;;;;;;;;;;4939553;29;20199;-72
2021/11/16 09:03:08;;;;;;;29.10;14.40;;;;;;;;;;4939487;29;20191;-72
2021/11/16 09:06:20;;;;;;;31.83;14.97;;;;;;;;;;4939042;29;20200;-72
2021/11/16 09:09:26;;;;;;;27.57;12.97;;;;;;;;;;4939384;29;20267;-72
2021/11/16 09:12:47;;;;;;;27.63;13.27;;;;;;;;;;4939813;29;20216;-72
2021/11/16 09:16:19;;;;;;;28.83;14.07;;;;;;;;;;4938154;29;20189;-72
2021/11/16 09:19:33;;;;;;;29.87;14.63;;;;;;;;;;4938336;29;20575;-72
2021/11/16 09:22:37;;;;;;;28.50;13.97;;;;;;;;;;4937918;29;20587;-72
2021/11/16 09:25:42;;;;;;;29.97;15.00;;;;;;;;;;4939143;29;20181;-72
2021/11/16 09:29:15;;;;;;;24.00;13.33;;;;;;;;;;4938752;29;20265;-72
2021/11/16 09:32:22;;;;;;;27.63;13.97;;;;;;;;;;4938833;29;20228;-72
2021/11/16 09:35:58;;;;;;;26.53;13.87;;;;;;;;;;4938538;29;20207;-72
2021/11/16 09:39:17;;;;;;;26.43;13.73;;;;;;;;;;4939111;29;20188;-72
2021/11/16 09:42:28;;;;;;;26.97;13.03;;;;;;;;;;4937912;29;20220;-72
2021/11/16 09:45:34;;;;;;;30.80;14.57;;;;;;;;;;4939282;29;20214;-72
2021/11/16 09:48:40;;;;;;;30.50;14.40;;;;;;;;;;4938659;29;20184;-72
2021/11/16 09:51:59;;;;;;;28.47;13.40;;;;;;;;;;4937301;29;20725;-72
2021/11/16 09:55:27;;;;;;;28.93;13.90;;;;;;;;;;4937542;29;20192;-72
2021/11/16 09:58:37;;;;;;;26.77;13.63;;;;;;;;;;4938510;29;20184;-72
2021/11/16 10:01:41;;;;;;;32.00;14.23;;;;;;;;;;4938638;29;20715;-72
2021/11/16 10:04:49;;;;;;;27.73;14.60;;;;;;;;;;4926477;29;20196;-72
2021/11/16 10:07:56;;;;;;;30.53;14.90;;;;;;;;;;4974437;23;20241;-73
2021/11/16 10:11:01;;;;;;;33.47;14.40;;;;;;;;;;4976790;28;20229;-73
2021/11/16 10:14:05;;;;;;;29.27;15.13;;;;;;;;;;4965104;28;20186;-73
2021/11/16 10:17:09;;;;;;;32.80;16.97;;;;;;;;;;4964735;28;20195;-73
2021/11/16 10:20:15;;;;;;;36.03;16.03;;;;;;;;;;4976433;28;20207;-73
2021/11/16 10:23:31;;;;;;;25.80;14.37;;;;;;;;;;4976835;28;20656;-73
2021/11/16 10:26:36;;;;;;;31.57;14.47;;;;;;;;;;4976291;28;20202;-73
2021/11/16 10:29:39;;;;;;;25.73;13.60;;;;;;;;;;4976391;28;20211;-73
2021/11/16 10:33:09;;;;;;;23.27;11.90;;;;;;;;;;4977317;28;20215;-73
2021/11/16 10:36:16;;;;;;;22.77;12.37;;;;;;;;;;4982229;28;20194;-73
2021/11/16 10:39:23;;;;;;;28.07;12.97;;;;;;;;;;4975969;28;20190;-73
2021/11/16 10:42:29;;;;;;;24.37;13.17;;;;;;;;;;4964257;28;20217;-73
2021/11/16 10:45:46;;;;;;;25.47;14.20;;;;;;;;;;4976454;28;20540;-73
2021/11/16 10:48:54;;;;;;;27.03;14.70;;;;;;;;;;4976058;28;20633;-73
2021/11/16 10:51:58;;;;;;;30.50;15.43;;;;;;;;;;4975702;28;20235;-73
2021/11/16 10:55:05;;;;;;;28.60;14.70;;;;;;;;;;4964084;28;20653;-73
2021/11/16 10:58:13;;;;;;;31.23;15.33;;;;;;;;;;4975976;28;20546;-73
2021/11/16 11:01:20;;;;;;;31.80;15.83;;;;;;;;;;4963469;28;20583;-73
2021/11/16 11:04:28;;;;;;;31.57;15.40;;;;;;;;;;4975751;28;20179;-73
2021/11/16 11:07:37;;;;;;;27.87;13.67;;;;;;;;;;4975498;28;20209;-73
2021/11/16 11:10:44;;;;;;;31.17;13.93;;;;;;;;;;4975395;28;20214;-73
2021/11/16 11:14:12;;;;;;;27.17;14.47;;;;;;;;;;4975344;28;20179;-73
2021/11/16 11:17:16;;;;;;;27.67;14.93;;;;;;;;;;4952513;28;20257;-73
2021/11/16 11:20:20;;;;;;;30.67;14.07;;;;;;;;;;4975605;28;20556;-73
2021/11/16 11:23:41;;;;;;;25.53;13.70;;;;;;;;;;4975428;28;20549;-73
2021/11/16 11:26:56;;;;;;;26.73;13.30;;;;;;;;;;4963316;28;20210;-73
2021/11/16 11:30:05;;;;;;;27.17;13.20;;;;;;;;;;4963215;28;20198;-73
2021/11/16 11:33:10;;;;;;;26.10;13.57;;;;;;;;;;4975274;28;20188;-73
2021/11/16 11:36:25;;;;;;;29.30;13.57;;;;;;;;;;4963308;28;20183;-73
2021/11/16 11:39:31;;;;;;;26.80;14.17;;;;;;;;;;4975175;28;20191;-73
2021/11/16 11:42:47;;;;;;;26.63;13.63;;;;;;;;;;4975016;28;20217;-73
2021/11/16 11:45:51;;;;;;;32.63;16.37;;;;;;;;;;4975057;28;20187;-73
2021/11/16 11:49:08;;;;;;;30.77;16.23;;;;;;;;;;4974704;28;20206;-73
2021/11/16 11:52:12;;;;;;;31.63;16.33;;;;;;;;;;4974926;28;20243;-73
2021/11/16 11:55:17;;;;;;;35.07;16.73;;;;;;;;;;4975116;28;20192;-73
2021/11/16 11:58:24;;;;;;;33.63;15.50;;;;;;;;;;4974913;28;20198;-73
2021/11/16 12:01:29;;;;;;;33.47;16.30;;;;;;;;;;4963084;28;20211;-73
2021/11/16 12:04:33;;;;;;;29.90;16.67;;;;;;;;;;4962647;28;20179;-73
2021/11/16 12:07:37;;;;;;;33.43;17.50;;;;;;;;;;4974805;28;20723;-73
2021/11/16 12:10:44;;;;;;;37.17;18.47;;;;;;;;;;4974552;28;20219;-73
2021/11/16 12:13:49;;;;;;;35.07;17.27;;;;;;;;;;4962562;28;20692;-73
2021/11/16 12:17:01;;;;;;;38.50;17.73;;;;;;;;;;4974645;28;20190;-73
2021/11/16 12:20:06;;;;;;;36.13;18.07;;;;;;;;;;4952001;28;20626;-73
2021/11/16 12:23:14;;;;;;;40.57;19.07;;;;;;;;;;4962664;28;20182;-73
2021/11/16 12:26:18;;;;;;;37.30;18.53;;;;;;;;;;4974368;28;20194;-73
2021/11/16 12:29:25;;;;;;;36.67;18.77;;;;;;;;;;4962919;28;20183;-73
2021/11/16 12:32:32;;;;;;;48.20;25.70;;;;;;;;;;4974103;28;20226;-73
2021/11/16 12:35:46;;;;;;;47.57;25.20;;;;;;;;;;4962261;28;20573;-73
2021/11/16 12:38:50;;;;;;;47.50;23.60;;;;;;;;;;4962287;28;20191;-73
2021/11/16 12:42:08;;;;;;;37.27;18.30;;;;;;;;;;4962190;28;20227;-73
2021/11/16 12:45:14;;;;;;;38.27;17.77;;;;;;;;;;4974334;28;20195;-73
2021/11/16 12:48:38;;;;;;;34.43;17.10;;;;;;;;;;4974350;28;20187;-73
2021/11/16 12:51:56;;;;;;;35.20;17.03;;;;;;;;;;4974373;28;20226;-73
2021/11/16 12:55:24;;;;;;;37.40;17.23;;;;;;;;;;4962198;28;20557;-73
2021/11/16 12:58:29;;;;;;;39.13;17.83;;;;;;;;;;4951350;28;20632;-73
2021/11/16 13:01:41;;;;;;;35.53;16.53;;;;;;;;;;4962586;28;20222;-73
2021/11/16 13:04:49;;;;;;;33.97;16.70;;;;;;;;;;4951294;28;20190;-73
2021/11/16 13:07:56;;;;;;;33.63;17.63;;;;;;;;;;4973867;28;20215;-73
2021/11/16 13:10:59;;;;;;;36.00;17.27;;;;;;;;;;4974130;28;20579;-73
2021/11/16 13:14:04;;;;;;;36.10;18.13;;;;;;;;;;4974390;28;20183;-73
2021/11/16 13:17:42;;;;;;;36.70;18.27;;;;;;;;;;4974437;28;20194;-73
2021/11/16 13:21:17;;;;;;;30.37;15.43;;;;;;;;;;4962398;28;20268;-73
2021/11/16 13:24:37;;;;;;;31.57;14.63;;;;;;;;;;4961958;28;20210;-73
2021/11/16 13:27:52;;;;;;;27.87;14.57;;;;;;;;;;4977577;28;20661;-73
2021/11/16 13:31:16;;;;;;;30.73;15.10;;;;;;;;;;4977201;28;20229;-73
2021/11/16 13:35:04;;;;;;;28.87;15.07;;;;;;;;;;4977562;28;20198;-73
2021/11/16 13:38:08;;;;;;;29.73;14.30;;;;;;;;;;4858744;29;20205;-73
2021/11/16 13:41:12;;;;;;;36.13;17.00;;;;;;;;;;4880447;28;20233;-74
2021/11/16 13:44:36;;;;;;;36.30;16.97;;;;;;;;;;4965412;28;20190;-73
2021/11/16 13:47:48;;;;;;;29.30;14.63;;;;;;;;;;4954563;28;20183;-73
2021/11/16 13:50:52;;;;;;;31.77;16.23;;;;;;;;;;4965155;28;20297;-73
2021/11/16 13:54:00;;;;;;;31.40;14.90;;;;;;;;;;4977430;28;20176;-73
2021/11/16 13:57:10;;;;;;;35.07;15.63;;;;;;;;;;4964887;28;20179;-73
2021/11/16 14:00:29;;;;;;;33.30;15.87;;;;;;;;;;4965109;28;20183;-73
2021/11/16 14:03:34;;;;;;;32.27;16.07;;;;;;;;;;4964849;28;20179;-73
2021/11/16 14:06:38;;;;;;;30.10;15.47;;;;;;;;;;4977260;28;20186;-73
2021/11/16 14:09:59;;;;;;;31.77;15.53;;;;;;;;;;4977068;28;20184;-73
2021/11/16 14:13:11;;;;;;;35.07;16.63;;;;;;;;;;4965026;28;20226;-73
2021/11/16 14:16:18;;;;;;;28.37;15.27;;;;;;;;;;4953869;28;20186;-73
2021/11/16 14:19:23;;;;;;;29.80;15.37;;;;;;;;;;4976662;28;20193;-73
2021/11/16 14:22:33;;;;;;;32.33;16.10;;;;;;;;;;4976490;28;20220;-73
2021/11/16 14:25:45;;;;;;;34.77;15.03;;;;;;;;;;4976723;28;20238;-73
2021/11/16 14:28:49;;;;;;;34.20;16.27;;;;;;;;;;4964556;28;20179;-73
2021/11/16 14:31:55;;;;;;;32.10;16.10;;;;;;;;;;4964132;28;20234;-73
2021/11/16 14:35:00;;;;;;;32.10;16.20;;;;;;;;;;4976404;28;20221;-73
2021/11/16 14:38:05;;;;;;;33.23;16.37;;;;;;;;;;4963730;28;20186;-73
2021/11/16 14:41:14;;;;;;;29.13;16.07;;;;;;;;;;4976323;28;20228;-73
2021/11/16 14:44:20;;;;;;;34.80;16.50;;;;;;;;;;4953509;28;20208;-73
2021/11/16 14:47:29;;;;;;;33.83;16.20;;;;;;;;;;4953252;28;20545;-73
2021/11/16 14:50:38;;;;;;;32.23;15.47;;;;;;;;;;4963831;28;20199;-73
2021/11/16 14:53:49;;;;;;;36.83;17.67;;;;;;;;;;4975894;28;20228;-73
2021/11/16 14:56:54;;;;;;;35.40;16.23;;;;;;;;;;4975940;28;20202;-73
2021/11/16 15:00:16;;;;;;;32.97;16.87;;;;;;;;;;4963911;28;20206;-73
2021/11/16 15:03:20;;;;;;;34.77;17.33;;;;;;;;;;4975743;28;20186;-73
2021/11/16 15:06:27;;;;;;;33.87;16.77;;;;;;;;;;4975508;28;20187;-73
2021/11/16 15:09:32;;;;;;;33.17;16.70;;;;;;;;;;4975884;28;20208;-73
2021/11/16 15:12:39;;;;;;;35.97;17.77;;;;;;;;;;4964154;28;20237;-73
2021/11/16 15:15:43;;;;;;;32.10;16.40;;;;;;;;;;4975506;28;20210;-73
2021/11/16 15:19:17;;;;;;;38.43;17.60;;;;;;;;;;4963850;28;20194;-73
2021/11/16 15:26:04;;;;;;;35.60;16.63;;;;;;;;;;4941391;28;20211;-73
2021/11/16 15:29:08;;;;;;;33.17;17.23;;;;;;;;;;4975282;28;20673;-73
2021/11/16 15:32:13;;;;;;;35.77;16.30;;;;;;;;;;4971506;28;20234;-73
2021/11/16 15:35:17;;;;;;;35.27;17.43;;;;;;;;;;4975223;28;20647;-73
2021/11/16 15:38:24;;;;;;;76.23;33.90;;;;;;;;;;4975189;28;20185;-73
2021/11/16 15:41:37;;;;;;;39.43;20.23;;;;;;;;;;4967745;28;20597;-72
2021/11/16 15:44:57;;;;;;;37.07;17.57;;;;;;;;;;4968191;28;20559;-73
2021/11/16 15:48:17;;;;;;;1344.10;832.67;;;;;;;;;;4932292;28;20188;-73
2021/11/16 15:51:43;;;;;;;1029.53;717.63;;;;;;;;;;4933133;29;20230;-73
2021/11/16 15:58:10;;;;;;;86.50;51.77;;;;;;;;;;4974889;28;20649;-73
2021/11/16 16:01:17;;;;;;;61.23;35.77;;;;;;;;;;4962872;28;20225;-73
2021/11/16 16:04:21;;;;;;;42.37;24.07;;;;;;;;;;4961590;28;20199;-74
2021/11/16 16:07:25;;;;;;;37.07;20.13;;;;;;;;;;4991629;23;20232;-84
2021/11/16 16:10:39;;;;;;;25.97;14.50;;;;;;;;;;4943369;28;20193;-86
2021/11/16 16:13:44;;;;;;;28.57;17.93;;;;;;;;;;4967744;28;20221;-84
2021/11/16 16:16:59;;;;;;;31.73;15.93;;;;;;;;;;4968181;28;20193;-89
2021/11/16 16:20:05;;;;;;;23.60;13.40;;;;;;;;;;4952133;28;20199;-88
2021/11/16 16:23:14;;;;;;;29.50;17.00;;;;;;;;;;4953178;28;20194;-89
2021/11/16 16:26:22;;;;;;;34.23;17.57;;;;;;;;;;4933942;28;20198;-89
2021/11/16 16:29:26;;;;;;;37.93;16.93;;;;;;;;;;4931833;28;20195;-89
2021/11/16 16:32:31;;;;;;;38.17;20.77;;;;;;;;;;4937406;28;20217;-89
2021/11/16 16:35:41;;;;;;;38.53;20.87;;;;;;;;;;4948872;28;20187;-89
2021/11/16 16:39:15;;;;;;;46.47;22.23;;;;;;;;;;4942006;28;20202;-89
2021/11/16 16:42:23;;;;;;;45.13;23.87;;;;;;;;;;4924577;28;20210;-90
2021/11/16 16:45:28;;;;;;;49.90;27.30;;;;;;;;;;4927117;28;20229;-86
2021/11/16 16:48:32;;;;;;;48.57;21.67;;;;;;;;;;4937557;28;20229;-86
2021/11/16 16:51:50;;;;;;;34.13;20.00;;;;;;;;;;4947752;28;20565;-89
2021/11/16 16:54:55;;;;;;;42.00;21.70;;;;;;;;;;4938374;28;20201;-90
2021/11/16 16:58:00;;;;;;;41.23;21.83;;;;;;;;;;4938796;28;20708;-90
2021/11/16 17:01:06;;;;;;;45.23;22.90;;;;;;;;;;4922584;29;20182;-90
2021/11/16 17:04:12;;;;;;;38.27;21.60;;;;;;;;;;4924179;29;20680;-89
2021/11/16 17:07:17;;;;;;;42.40;22.93;;;;;;;;;;4962927;28;20237;-89
2021/11/16 17:10:22;;;;;;;50.00;23.63;;;;;;;;;;4953712;28;20207;-89
2021/11/16 17:13:30;;;;;;;44.50;21.93;;;;;;;;;;4954339;28;20248;-89
2021/11/16 17:16:36;;;;;;;45.80;23.60;;;;;;;;;;4941226;28;20625;-89
2021/11/16 17:19:41;;;;;;;49.07;24.20;;;;;;;;;;4943510;28;20643;-90
2021/11/16 17:22:51;;;;;;;51.33;25.70;;;;;;;;;;4960474;28;20209;-91
2021/11/16 17:25:55;;;;;;;53.23;26.93;;;;;;;;;;4932132;29;20237;-89
2021/11/16 17:29:00;;;;;;;48.97;23.57;;;;;;;;;;4932623;29;20195;-89
2021/11/16 17:32:05;;;;;;;46.90;23.27;;;;;;;;;;4936867;28;20202;-90
2021/11/16 17:35:10;;;;;;;47.43;23.73;;;;;;;;;;4940738;28;20247;-90
2021/11/16 17:38:14;;;;;;;47.23;23.13;;;;;;;;;;4971452;28;20629;-90
2021/11/16 17:41:19;;;;;;;46.57;23.23;;;;;;;;;;4988655;28;20210;-90
2021/11/16 17:44:27;;;;;;;47.60;23.33;;;;;;;;;;4953170;28;20668;-89
2021/11/16 17:47:32;;;;;;;43.27;23.17;;;;;;;;;;4965458;28;20226;-89
2021/11/16 17:50:40;;;;;;;48.60;23.10;;;;;;;;;;4934407;29;20578;-89
2021/11/16 17:53:45;;;;;;;48.00;24.60;;;;;;;;;;4945528;29;20211;-90
2021/11/16 17:56:50;;;;;;;46.73;22.50;;;;;;;;;;4953411;28;20241;-90
2021/11/16 17:59:55;;;;;;;52.17;23.50;;;;;;;;;;4953498;28;20189;-90
2021/11/16 18:03:01;;;;;;;48.73;23.50;;;;;;;;;;4964084;28;20190;-89
2021/11/16 18:07:56;;;;;;;44.90;22.93;;;;;;;;;;4953712;28;20200;-90
2021/11/16 18:09:42;;;;;;;51.00;24.20;;;;;;;;;;4964441;28;20214;-90
2021/11/16 18:12:45;;;;;;;44.90;23.00;;;;;;;;;;4962967;28;20221;-90
2021/11/16 18:15:51;;;;;;;46.60;22.47;;;;;;;;;;4953902;28;20190;-90
2021/11/16 18:18:57;;;;;;;48.90;23.43;;;;;;;;;;4964769;28;20205;-90
2021/11/16 18:22:01;;;;;;;50.30;24.80;;;;;;;;;;4942015;28;20196;-90
2021/11/16 18:25:06;;;;;;;48.37;23.40;;;;;;;;;;4953394;28;20195;-91
2021/11/16 18:28:12;;;;;;;49.43;23.10;;;;;;;;;;4964525;28;20716;-91
2021/11/16 18:31:18;;;;;;;57.67;28.90;;;;;;;;;;4952816;28;20198;-90